Time;durP1;ratioP1;P1;durP2;ratioP2;P2;SDS_P1;SDS_P2;PMS_P1;PMS_P2;Temp;Humidity;BMP_temperature;BMP_pressure;BME280_temperature;BME280_humidity;BME280_pressure;Samples;Min_cycle;Max_cycle;Signal;HPM_P1;HPM_P2
2021/10/02 09:00:57;;;;;;;5.57;4.63;;;;;;;;;;2113995;27;20366;-54
2021/10/02 09:02:16;;;;;;;6.75;4.75;;;;;;;;;;2114339;28;20024;-56
2021/10/02 09:03:35;;;;;;;7.10;4.75;;;;;;;;;;2115982;28;20122;-57
2021/10/02 09:04:56;;;;;;;8.55;4.78;;;;;;;;;;2116638;28;20389;-55
2021/10/02 09:06:15;;;;;;;8.82;4.00;;;;;;;;;;2117454;28;20039;-58
2021/10/02 09:07:34;;;;;;;9.38;4.50;;;;;;;;;;2114864;28;20028;-55
2021/10/02 09:08:53;;;;;;;9.38;4.60;;;;;;;;;;2115063;28;20550;-56
2021/10/02 09:10:13;;;;;;;6.72;4.35;;;;;;;;;;2115706;28;20076;-55
2021/10/02 09:11:33;;;;;;;8.15;4.70;;;;;;;;;;2116295;28;20492;-58
2021/10/02 09:12:52;;;;;;;7.43;4.13;;;;;;;;;;2117405;28;20500;-62
2021/10/02 09:14:11;;;;;;;4.80;3.95;;;;;;;;;;2113668;28;20027;-57
2021/10/02 09:15:30;;;;;;;6.50;4.45;;;;;;;;;;2117826;28;20031;-57
2021/10/02 09:16:49;;;;;;;7.32;4.60;;;;;;;;;;2112648;28;20114;-57
2021/10/02 09:18:08;;;;;;;8.68;4.80;;;;;;;;;;2113773;28;20031;-57
2021/10/02 09:19:27;;;;;;;5.30;4.40;;;;;;;;;;2115078;28;20035;-56
2021/10/02 09:20:59;;;;;;;7.10;4.60;;;;;;;;;;2114979;28;20431;-57
2021/10/02 09:22:22;;;;;;;5.13;4.43;;;;;;;;;;2114216;28;20028;-54
2021/10/02 09:23:42;;;;;;;7.10;5.30;;;;;;;;;;2114620;28;20036;-56
2021/10/02 09:25:04;;;;;;;7.47;4.53;;;;;;;;;;2116738;28;20032;-57
2021/10/02 09:26:40;;;;;;;9.52;4.78;;;;;;;;;;2114430;28;20028;-56
2021/10/02 09:28:04;;;;;;;6.22;4.88;;;;;;;;;;2109921;28;20021;-55
2021/10/02 09:29:34;;;;;;;7.40;4.95;;;;;;;;;;2114189;28;20023;-56
2021/10/02 09:31:02;;;;;;;5.50;4.93;;;;;;;;;;2116086;28;20028;-57
2021/10/02 09:32:22;;;;;;;5.25;4.70;;;;;;;;;;2114666;28;20023;-55
2021/10/02 09:33:45;;;;;;;6.78;4.82;;;;;;;;;;2115336;28;20490;-56
2021/10/02 09:35:10;;;;;;;6.95;5.10;;;;;;;;;;2115171;28;20040;-56
2021/10/02 09:36:29;;;;;;;7.63;5.35;;;;;;;;;;2115813;28;20111;-56
2021/10/02 09:37:52;;;;;;;8.52;5.78;;;;;;;;;;2116097;28;20055;-56
2021/10/02 09:39:11;;;;;;;8.65;4.85;;;;;;;;;;2106161;28;20564;-56
2021/10/02 09:40:32;;;;;;;10.15;5.70;;;;;;;;;;2111008;28;20039;-56
2021/10/02 09:41:52;;;;;;;11.00;5.53;;;;;;;;;;2114481;28;20024;-55
2021/10/02 09:43:11;;;;;;;5.57;5.00;;;;;;;;;;2097063;28;20028;-56
2021/10/02 09:44:30;;;;;;;7.95;5.85;;;;;;;;;;2105055;28;20035;-57
2021/10/02 09:45:49;;;;;;;13.15;5.70;;;;;;;;;;2099104;28;20025;-58
2021/10/02 09:47:15;;;;;;;7.55;4.47;;;;;;;;;;2104954;28;20414;-56
2021/10/02 09:48:35;;;;;;;9.82;5.15;;;;;;;;;;2106302;28;20429;-55
2021/10/02 09:49:55;;;;;;;6.40;5.03;;;;;;;;;;2107113;28;20115;-57
2021/10/02 09:51:16;;;;;;;8.02;4.93;;;;;;;;;;2109796;28;20020;-56
2021/10/02 09:52:37;;;;;;;7.50;4.70;;;;;;;;;;2104877;28;20024;-58
2021/10/02 09:53:56;;;;;;;5.53;4.63;;;;;;;;;;2107156;28;20028;-56
2021/10/02 09:55:25;;;;;;;7.30;5.00;;;;;;;;;;2108416;28;20024;-56
2021/10/02 09:57:17;;;;;;;6.35;5.00;;;;;;;;;;2110059;28;20424;-54
2021/10/02 09:58:36;;;;;;;6.70;4.72;;;;;;;;;;2078609;28;20034;-56
2021/10/02 10:00:06;;;;;;;5.47;4.93;;;;;;;;;;2098857;28;20024;-57
2021/10/02 10:01:26;;;;;;;7.40;4.80;;;;;;;;;;2103650;28;20103;-58
2021/10/02 10:02:45;;;;;;;5.47;4.82;;;;;;;;;;2107256;28;20017;-58
2021/10/02 10:04:04;;;;;;;8.18;4.50;;;;;;;;;;2108406;28;20032;-57
2021/10/02 10:05:26;;;;;;;6.63;5.25;;;;;;;;;;2107844;28;20024;-56
2021/10/02 10:06:45;;;;;;;8.07;4.28;;;;;;;;;;2104025;28;20024;-58
2021/10/02 10:08:06;;;;;;;6.40;4.93;;;;;;;;;;2109465;28;20032;-59
2021/10/02 10:09:24;;;;;;;6.03;4.30;;;;;;;;;;2108435;28;20024;-54
2021/10/02 10:10:44;;;;;;;5.40;4.63;;;;;;;;;;2108359;28;20063;-57
2021/10/02 10:12:02;;;;;;;7.05;4.70;;;;;;;;;;2100510;28;20024;-57
2021/10/02 10:13:21;;;;;;;4.78;4.25;;;;;;;;;;2101675;28;20028;-56
2021/10/02 10:14:40;;;;;;;7.80;5.05;;;;;;;;;;2103118;28;20107;-55
2021/10/02 10:15:59;;;;;;;5.53;4.72;;;;;;;;;;2103415;28;20115;-55
2021/10/02 10:17:18;;;;;;;6.65;4.70;;;;;;;;;;2100750;28;20036;-55
2021/10/02 10:18:41;;;;;;;5.00;4.45;;;;;;;;;;2101153;28;20092;-56
2021/10/02 10:20:03;;;;;;;6.45;4.32;;;;;;;;;;2102610;28;20024;-56
2021/10/02 10:21:21;;;;;;;11.00;4.72;;;;;;;;;;2098995;28;20029;-56
2021/10/02 10:22:40;;;;;;;6.45;4.43;;;;;;;;;;2098646;28;20028;-55
2021/10/02 10:24:04;;;;;;;5.13;4.60;;;;;;;;;;2101404;28;20028;-56
2021/10/02 10:25:23;;;;;;;5.13;4.45;;;;;;;;;;2100997;28;20113;-54
2021/10/02 10:26:45;;;;;;;5.20;4.30;;;;;;;;;;2102443;28;20036;-55
2021/10/02 10:28:07;;;;;;;9.15;5.20;;;;;;;;;;2093186;28;20029;-55
2021/10/02 10:29:35;;;;;;;7.47;4.75;;;;;;;;;;2098907;28;20024;-55
2021/10/02 10:31:07;;;;;;;7.30;4.63;;;;;;;;;;2099956;28;20028;-55
2021/10/02 10:32:26;;;;;;;6.80;5.30;;;;;;;;;;2102256;28;20044;-56
2021/10/02 10:33:47;;;;;;;8.27;5.18;;;;;;;;;;2101359;28;20036;-55
2021/10/02 10:35:07;;;;;;;5.30;4.50;;;;;;;;;;2101137;28;20570;-57
2021/10/02 10:36:31;;;;;;;8.18;5.05;;;;;;;;;;2102221;28;20020;-57
2021/10/02 10:37:50;;;;;;;8.45;4.60;;;;;;;;;;2101129;28;20399;-55
2021/10/02 10:39:09;;;;;;;4.53;4.13;;;;;;;;;;2101342;28;20151;-56
2021/10/02 10:40:28;;;;;;;5.90;4.82;;;;;;;;;;2101851;28;20123;-55
2021/10/02 10:41:47;;;;;;;7.85;4.82;;;;;;;;;;2100115;28;20036;-57
2021/10/02 10:43:06;;;;;;;5.72;4.43;;;;;;;;;;2100831;28;20428;-55
2021/10/02 10:44:26;;;;;;;5.63;4.60;;;;;;;;;;2103277;28;20028;-56
2021/10/02 10:45:45;;;;;;;9.65;5.05;;;;;;;;;;2103302;28;20103;-56
2021/10/02 10:47:04;;;;;;;6.93;5.00;;;;;;;;;;2099981;28;20028;-56
2021/10/02 10:48:23;;;;;;;6.45;4.43;;;;;;;;;;2100350;28;20024;-55
2021/10/02 10:49:42;;;;;;;7.78;4.15;;;;;;;;;;2102417;28;20048;-56
2021/10/02 10:51:02;;;;;;;5.22;4.20;;;;;;;;;;2098272;28;20037;-56
2021/10/02 10:52:22;;;;;;;5.78;4.78;;;;;;;;;;2102318;28;20059;-56
2021/10/02 10:53:41;;;;;;;5.63;4.38;;;;;;;;;;2101090;28;20469;-56
2021/10/02 10:55:00;;;;;;;6.85;4.38;;;;;;;;;;2094030;28;20511;-58
2021/10/02 10:56:54;;;;;;;7.68;4.57;;;;;;;;;;2097343;28;20036;-58
2021/10/02 10:58:20;;;;;;;4.63;4.20;;;;;;;;;;2099001;28;20048;-57
2021/10/02 11:00:05;;;;;;;5.72;4.60;;;;;;;;;;2098804;28;20550;-57
2021/10/02 11:01:35;;;;;;;8.95;4.60;;;;;;;;;;2100173;28;20048;-57
2021/10/02 11:02:55;;;;;;;5.07;3.97;;;;;;;;;;2101015;28;20070;-56
2021/10/02 11:04:36;;;;;;;4.35;3.90;;;;;;;;;;2099400;28;20028;-57
2021/10/02 11:05:55;;;;;;;7.68;4.20;;;;;;;;;;2100037;28;20028;-56
2021/10/02 11:07:16;;;;;;;5.40;4.25;;;;;;;;;;2103378;28;20029;-56
2021/10/02 11:08:54;;;;;;;8.43;4.40;;;;;;;;;;2100926;28;20036;-57
2021/10/02 11:10:36;;;;;;;8.93;4.07;;;;;;;;;;2100362;28;20040;-58
2021/10/02 11:11:56;;;;;;;5.57;3.90;;;;;;;;;;2102432;28;20036;-57
2021/10/02 11:13:41;;;;;;;5.07;4.00;;;;;;;;;;2103413;28;20060;-56
2021/10/02 11:15:00;;;;;;;7.55;4.70;;;;;;;;;;2100986;28;20033;-56
2021/10/02 11:16:36;;;;;;;8.70;3.92;;;;;;;;;;2101866;28;20020;-56
2021/10/02 11:17:55;;;;;;;8.88;4.25;;;;;;;;;;2101788;28;20028;-57
2021/10/02 11:19:37;;;;;;;7.35;5.30;;;;;;;;;;2102480;28;20107;-57
2021/10/02 11:21:01;;;;;;;6.40;5.07;;;;;;;;;;2100508;28;20048;-57
2021/10/02 11:22:43;;;;;;;10.48;5.45;;;;;;;;;;2098659;28;20037;-56
2021/10/02 11:24:03;;;;;;;6.72;4.90;;;;;;;;;;2100316;28;20115;-56
2021/10/02 11:25:23;;;;;;;5.28;4.82;;;;;;;;;;2097551;28;20040;-56
2021/10/02 11:26:43;;;;;;;4.93;4.00;;;;;;;;;;2097039;28;20025;-57
2021/10/02 11:28:22;;;;;;;5.25;4.75;;;;;;;;;;2099821;28;20044;-56
2021/10/02 11:29:41;;;;;;;6.60;4.18;;;;;;;;;;2101427;28;20028;-55
2021/10/02 11:31:10;;;;;;;10.32;5.60;;;;;;;;;;2099706;28;20017;-55
2021/10/02 11:32:33;;;;;;;14.90;8.60;;;;;;;;;;2102826;28;20024;-57
2021/10/02 11:33:52;;;;;;;9.50;7.60;;;;;;;;;;2101576;28;20028;-55
2021/10/02 11:35:11;;;;;;;11.38;7.82;;;;;;;;;;2094461;28;20029;-56
2021/10/02 11:36:30;;;;;;;8.75;7.70;;;;;;;;;;2099423;28;20198;-57
2021/10/02 11:37:54;;;;;;;7.75;6.50;;;;;;;;;;2099992;28;20033;-58
2021/10/02 11:39:25;;;;;;;7.30;6.57;;;;;;;;;;2101540;28;20029;-55
2021/10/02 11:40:45;;;;;;;8.90;6.68;;;;;;;;;;2101901;28;20035;-56
2021/10/02 11:42:07;;;;;;;7.30;6.22;;;;;;;;;;2101227;28;20048;-56
2021/10/02 11:43:27;;;;;;;6.53;5.47;;;;;;;;;;2099535;28;20390;-56
2021/10/02 11:44:49;;;;;;;7.95;5.40;;;;;;;;;;2100415;28;20115;-58
2021/10/02 11:46:09;;;;;;;10.15;6.13;;;;;;;;;;2094971;28;20437;-56
2021/10/02 11:47:34;;;;;;;6.47;5.82;;;;;;;;;;2093143;28;20512;-56
2021/10/02 11:48:53;;;;;;;6.68;4.97;;;;;;;;;;2091628;28;20060;-57
2021/10/02 11:50:12;;;;;;;9.52;5.05;;;;;;;;;;2097114;28;20028;-57
2021/10/02 11:51:31;;;;;;;4.78;4.38;;;;;;;;;;2103995;28;20486;-56
2021/10/02 11:52:53;;;;;;;4.25;3.70;;;;;;;;;;2099572;28;20028;-57
2021/10/02 11:54:13;;;;;;;4.07;3.67;;;;;;;;;;2102225;28;20039;-56
2021/10/02 11:55:39;;;;;;;4.25;3.88;;;;;;;;;;2101001;28;20043;-56
2021/10/02 11:57:09;;;;;;;3.85;3.45;;;;;;;;;;2101054;28;20107;-56
2021/10/02 11:58:38;;;;;;;3.85;3.45;;;;;;;;;;2100260;28;20478;-56
2021/10/02 11:59:58;;;;;;;6.30;3.47;;;;;;;;;;2100747;28;20501;-57
2021/10/02 12:01:17;;;;;;;3.60;3.30;;;;;;;;;;2093083;28;20068;-55
2021/10/02 12:02:43;;;;;;;3.50;3.20;;;;;;;;;;2095918;28;20025;-55
2021/10/02 12:04:03;;;;;;;3.47;3.17;;;;;;;;;;2101405;28;20032;-55
2021/10/02 12:05:23;;;;;;;3.38;3.05;;;;;;;;;;2097873;28;20439;-56
2021/10/02 12:06:43;;;;;;;4.25;3.03;;;;;;;;;;2101089;28;20021;-58
2021/10/02 12:08:02;;;;;;;3.80;2.95;;;;;;;;;;2099163;28;20017;-57
2021/10/02 12:09:21;;;;;;;4.03;3.00;;;;;;;;;;2100341;28;20032;-57
2021/10/02 12:10:52;;;;;;;5.65;3.17;;;;;;;;;;2098611;28;20475;-57
2021/10/02 12:12:11;;;;;;;3.90;3.10;;;;;;;;;;2103009;28;20044;-55
2021/10/02 12:13:30;;;;;;;3.78;3.08;;;;;;;;;;2099240;28;20028;-57
2021/10/02 12:14:55;;;;;;;4.28;3.10;;;;;;;;;;2099559;28;20422;-57
2021/10/02 12:16:21;;;;;;;6.28;2.83;;;;;;;;;;2098654;28;20044;-57
2021/10/02 12:17:52;;;;;;;3.53;3.22;;;;;;;;;;2101961;28;20020;-56
2021/10/02 12:19:20;;;;;;;4.25;3.00;;;;;;;;;;2100608;28;20048;-57
2021/10/02 12:20:40;;;;;;;3.10;2.60;;;;;;;;;;2100446;28;20406;-56
2021/10/02 12:22:01;;;;;;;3.78;3.40;;;;;;;;;;2101452;28;20021;-57
2021/10/02 12:23:20;;;;;;;4.95;3.13;;;;;;;;;;2092227;28;20036;-58
2021/10/02 12:24:39;;;;;;;4.82;3.03;;;;;;;;;;2096031;28;20494;-56
2021/10/02 12:26:02;;;;;;;4.93;3.08;;;;;;;;;;2101115;28;20406;-57
2021/10/02 12:27:27;;;;;;;4.93;3.30;;;;;;;;;;2099740;28;20494;-57
2021/10/02 12:28:46;;;;;;;3.13;2.88;;;;;;;;;;2102353;28;20028;-57
2021/10/02 12:30:05;;;;;;;4.13;3.10;;;;;;;;;;2100684;28;20040;-55
2021/10/02 12:31:39;;;;;;;3.90;3.40;;;;;;;;;;2099455;28;20025;-56
2021/10/02 12:32:58;;;;;;;3.55;2.85;;;;;;;;;;2099647;28;20025;-57
2021/10/02 12:34:23;;;;;;;4.30;3.17;;;;;;;;;;2102718;28;20099;-57
2021/10/02 12:35:43;;;;;;;4.63;3.53;;;;;;;;;;2100014;28;20025;-55
2021/10/02 12:37:05;;;;;;;3.38;2.65;;;;;;;;;;2101153;28;20028;-56
2021/10/02 12:38:37;;;;;;;4.05;2.72;;;;;;;;;;2100091;28;20036;-56
2021/10/02 12:39:57;;;;;;;4.70;2.90;;;;;;;;;;2099770;28;20481;-57
2021/10/02 12:41:16;;;;;;;3.67;3.00;;;;;;;;;;2102066;28;20058;-57
2021/10/02 12:42:43;;;;;;;5.50;3.95;;;;;;;;;;2100332;28;20382;-56
2021/10/02 12:44:02;;;;;;;4.70;3.10;;;;;;;;;;2100724;28;20029;-56
2021/10/02 12:45:40;;;;;;;6.95;3.15;;;;;;;;;;2102002;28;20032;-57
2021/10/02 12:47:00;;;;;;;4.45;3.17;;;;;;;;;;2098915;28;20060;-57
2021/10/02 12:48:19;;;;;;;3.50;3.20;;;;;;;;;;2098395;28;20425;-56
2021/10/02 12:49:41;;;;;;;4.50;2.83;;;;;;;;;;2099404;28;20103;-56
2021/10/02 12:50:59;;;;;;;5.57;3.33;;;;;;;;;;2092442;28;20045;-56
2021/10/02 12:52:19;;;;;;;2.97;2.78;;;;;;;;;;2098155;28;20029;-56
2021/10/02 12:53:38;;;;;;;5.15;3.10;;;;;;;;;;2100415;28;20068;-56
2021/10/02 12:54:58;;;;;;;3.13;2.83;;;;;;;;;;2099667;28;20044;-57
2021/10/02 12:56:17;;;;;;;4.32;2.53;;;;;;;;;;2096817;28;20029;-57
2021/10/02 12:57:38;;;;;;;3.45;3.05;;;;;;;;;;2099719;28;20420;-57
2021/10/02 12:59:10;;;;;;;3.70;3.08;;;;;;;;;;2099022;28;20028;-57
2021/10/02 13:00:32;;;;;;;4.03;2.72;;;;;;;;;;2098931;28;20049;-56
2021/10/02 13:01:51;;;;;;;4.30;2.72;;;;;;;;;;2101294;28;20470;-57
2021/10/02 13:03:14;;;;;;;4.57;3.35;;;;;;;;;;2102774;28;20028;-57
2021/10/02 13:04:33;;;;;;;5.72;3.35;;;;;;;;;;2101431;28;20060;-56
2021/10/02 13:05:58;;;;;;;3.95;3.20;;;;;;;;;;2099755;28;20017;-57
2021/10/02 13:07:25;;;;;;;4.55;3.10;;;;;;;;;;2099148;28;20083;-56
2021/10/02 13:08:44;;;;;;;3.97;3.03;;;;;;;;;;2096331;28;20107;-56
2021/10/02 13:10:05;;;;;;;5.05;3.35;;;;;;;;;;2099274;28;20032;-56
2021/10/02 13:11:28;;;;;;;5.18;2.88;;;;;;;;;;2097331;28;20043;-56
2021/10/02 13:12:47;;;;;;;5.43;3.60;;;;;;;;;;2096888;28;20032;-56
2021/10/02 13:14:06;;;;;;;3.67;3.35;;;;;;;;;;2097680;28;20024;-56
2021/10/02 13:15:24;;;;;;;4.18;2.88;;;;;;;;;;2099589;28;20610;-56
2021/10/02 13:16:43;;;;;;;3.88;2.78;;;;;;;;;;2099077;28;20028;-57
2021/10/02 13:18:07;;;;;;;2.78;2.58;;;;;;;;;;2100575;28;20021;-56
2021/10/02 13:19:27;;;;;;;5.32;3.00;;;;;;;;;;2099021;28;20029;-56
2021/10/02 13:20:46;;;;;;;4.85;2.72;;;;;;;;;;2101688;28;20028;-58
2021/10/02 13:22:15;;;;;;;3.97;2.75;;;;;;;;;;2097896;28;20025;-57
2021/10/02 13:23:35;;;;;;;5.13;2.83;;;;;;;;;;2099724;28;20108;-56
2021/10/02 13:25:24;;;;;;;3.30;2.72;;;;;;;;;;2099597;28;20028;-55
2021/10/02 13:26:46;;;;;;;4.15;2.95;;;;;;;;;;2091558;28;20037;-57
2021/10/02 13:28:05;;;;;;;3.63;3.30;;;;;;;;;;2098091;28;20530;-56
2021/10/02 13:29:24;;;;;;;5.53;2.90;;;;;;;;;;2098747;28;20274;-55
2021/10/02 13:30:43;;;;;;;4.70;2.88;;;;;;;;;;2101739;28;20032;-56
2021/10/02 13:32:12;;;;;;;5.57;3.30;;;;;;;;;;2100602;28;20497;-55
2021/10/02 13:33:36;;;;;;;4.15;3.08;;;;;;;;;;2091028;28;20501;-56
2021/10/02 13:34:55;;;;;;;3.63;2.83;;;;;;;;;;2097249;28;20033;-57
2021/10/02 13:36:21;;;;;;;3.58;2.65;;;;;;;;;;2099587;28;20024;-55
2021/10/02 13:37:44;;;;;;;4.80;2.83;;;;;;;;;;2100952;28;20021;-57
2021/10/02 13:39:11;;;;;;;9.90;2.90;;;;;;;;;;2098260;28;20036;-57
2021/10/02 13:40:35;;;;;;;3.30;3.00;;;;;;;;;;2092009;28;20041;-56
2021/10/02 13:42:03;;;;;;;4.15;2.88;;;;;;;;;;2096246;28;20032;-56
2021/10/02 13:43:22;;;;;;;3.05;2.72;;;;;;;;;;2100695;28;20036;-56
2021/10/02 13:44:41;;;;;;;2.78;2.58;;;;;;;;;;2102704;28;20028;-56
2021/10/02 13:46:00;;;;;;;5.35;3.25;;;;;;;;;;2101782;28;20107;-56
2021/10/02 13:47:21;;;;;;;4.35;3.10;;;;;;;;;;2101495;28;20538;-56
2021/10/02 13:48:39;;;;;;;3.92;3.20;;;;;;;;;;2101631;28;20028;-56
2021/10/02 13:49:58;;;;;;;3.53;2.70;;;;;;;;;;2101283;28;20464;-56
2021/10/02 13:51:17;;;;;;;4.68;3.00;;;;;;;;;;2103231;28;20029;-55
2021/10/02 13:52:36;;;;;;;4.20;2.80;;;;;;;;;;2102046;28;20032;-55
2021/10/02 13:53:56;;;;;;;4.03;2.92;;;;;;;;;;2102354;28;20028;-56
2021/10/02 13:55:15;;;;;;;3.97;3.17;;;;;;;;;;2101451;28;20063;-56
2021/10/02 13:56:34;;;;;;;5.90;3.30;;;;;;;;;;2102704;28;20028;-57
2021/10/02 13:57:53;;;;;;;3.40;3.10;;;;;;;;;;2102796;28;20024;-57
2021/10/02 13:59:13;;;;;;;3.50;3.20;;;;;;;;;;2101148;28;20032;-56
2021/10/02 14:00:32;;;;;;;4.70;3.00;;;;;;;;;;2102770;28;20084;-56
2021/10/02 14:01:51;;;;;;;4.50;2.95;;;;;;;;;;2103470;28;20028;-57
2021/10/02 14:03:10;;;;;;;5.20;3.47;;;;;;;;;;2095395;28;20111;-58
2021/10/02 14:04:29;;;;;;;4.30;3.22;;;;;;;;;;2098524;28;20028;-58
2021/10/02 14:05:48;;;;;;;3.85;3.45;;;;;;;;;;2099457;28;20020;-59
2021/10/02 14:07:07;;;;;;;4.40;2.90;;;;;;;;;;2099964;28;20028;-57
2021/10/02 14:08:26;;;;;;;5.00;3.58;;;;;;;;;;2091083;28;20413;-57
2021/10/02 14:09:45;;;;;;;4.57;3.47;;;;;;;;;;2098495;28;20108;-57
2021/10/02 14:11:04;;;;;;;4.90;3.67;;;;;;;;;;2102303;28;20029;-58
2021/10/02 14:12:23;;;;;;;4.50;3.88;;;;;;;;;;2101908;28;20123;-58
2021/10/02 14:13:42;;;;;;;4.25;3.15;;;;;;;;;;2101998;28;20032;-58
2021/10/02 14:15:02;;;;;;;4.25;3.75;;;;;;;;;;2102924;28;20123;-59
2021/10/02 14:16:21;;;;;;;6.00;3.75;;;;;;;;;;2103076;28;20036;-57
2021/10/02 14:17:40;;;;;;;4.38;3.97;;;;;;;;;;2099936;28;20032;-57
2021/10/02 14:18:59;;;;;;;4.68;4.15;;;;;;;;;;2089959;28;20041;-57
2021/10/02 14:20:18;;;;;;;4.07;3.78;;;;;;;;;;2090066;28;20029;-58
2021/10/02 14:21:37;;;;;;;4.28;3.88;;;;;;;;;;2099632;28;20020;-58
2021/10/02 14:22:57;;;;;;;5.53;4.00;;;;;;;;;;2094201;28;20107;-58
2021/10/02 14:24:16;;;;;;;4.63;3.97;;;;;;;;;;2100014;28;20382;-58
2021/10/02 14:25:35;;;;;;;4.82;4.32;;;;;;;;;;2102118;28;20095;-59
2021/10/02 14:26:54;;;;;;;4.47;4.07;;;;;;;;;;2101349;28;20032;-58
2021/10/02 14:28:13;;;;;;;6.68;4.32;;;;;;;;;;2099690;28;20064;-57
2021/10/02 14:29:31;;;;;;;5.57;4.50;;;;;;;;;;2099363;28;20486;-57
2021/10/02 14:30:51;;;;;;;5.15;4.65;;;;;;;;;;2103218;28;20486;-57
2021/10/02 14:32:10;;;;;;;7.97;4.97;;;;;;;;;;2101011;28;20134;-57
2021/10/02 14:33:29;;;;;;;7.05;4.95;;;;;;;;;;2101951;28;20024;-57
2021/10/02 14:34:48;;;;;;;5.88;5.35;;;;;;;;;;2102007;28;20024;-59
2021/10/02 14:36:07;;;;;;;6.22;5.25;;;;;;;;;;2101410;28;20103;-59
2021/10/02 14:37:26;;;;;;;6.50;5.93;;;;;;;;;;2099247;28;20043;-58
2021/10/02 14:38:44;;;;;;;6.13;5.57;;;;;;;;;;2101657;28;20036;-57
2021/10/02 14:40:04;;;;;;;6.22;5.45;;;;;;;;;;2101592;28;20025;-59
2021/10/02 14:41:27;;;;;;;5.93;5.30;;;;;;;;;;2104332;28;20036;-56
2021/10/02 14:42:47;;;;;;;6.45;5.85;;;;;;;;;;2098604;28;20021;-57
2021/10/02 14:44:05;;;;;;;7.00;5.97;;;;;;;;;;2102277;28;20486;-58
2021/10/02 14:45:25;;;;;;;8.30;6.55;;;;;;;;;;2100299;28;20025;-57
2021/10/02 14:46:44;;;;;;;8.10;6.18;;;;;;;;;;2099974;28;20024;-58
2021/10/02 14:48:04;;;;;;;7.88;6.93;;;;;;;;;;2098884;28;20040;-58
2021/10/02 14:49:23;;;;;;;8.40;6.82;;;;;;;;;;2092292;28;20037;-58
2021/10/02 14:50:45;;;;;;;9.15;7.05;;;;;;;;;;2098118;28;20027;-58
2021/10/02 14:52:04;;;;;;;11.13;7.30;;;;;;;;;;2102580;28;20024;-58
2021/10/02 14:53:23;;;;;;;8.95;7.50;;;;;;;;;;2101341;28;20059;-58
2021/10/02 14:54:42;;;;;;;11.32;7.53;;;;;;;;;;2100785;28;20040;-59
2021/10/02 14:56:01;;;;;;;9.00;8.02;;;;;;;;;;2100169;28;20032;-58
2021/10/02 14:57:22;;;;;;;13.00;8.82;;;;;;;;;;2102915;28;20021;-59
2021/10/02 14:58:42;;;;;;;14.52;8.18;;;;;;;;;;2102921;28;20028;-57
2021/10/02 15:00:04;;;;;;;9.38;8.40;;;;;;;;;;2098712;28;20032;-58
2021/10/02 15:01:24;;;;;;;10.13;8.68;;;;;;;;;;2102069;28;20040;-58
2021/10/02 15:02:44;;;;;;;9.27;8.38;;;;;;;;;;2101276;28;20501;-58
2021/10/02 15:04:04;;;;;;;10.20;8.90;;;;;;;;;;2101879;28;20029;-58
2021/10/02 15:05:23;;;;;;;12.23;8.40;;;;;;;;;;2102138;28;20024;-58
2021/10/02 15:06:43;;;;;;;10.55;9.45;;;;;;;;;;2103512;28;20025;-58
2021/10/02 15:08:02;;;;;;;15.25;9.13;;;;;;;;;;2096656;28;20041;-58
2021/10/02 15:09:21;;;;;;;10.45;9.25;;;;;;;;;;2101552;28;20051;-58
2021/10/02 15:10:40;;;;;;;11.90;9.27;;;;;;;;;;2103429;28;20020;-58
2021/10/02 15:12:00;;;;;;;15.00;10.10;;;;;;;;;;2100929;28;20065;-58
2021/10/02 15:13:23;;;;;;;14.25;9.57;;;;;;;;;;2101336;28;20033;-57
2021/10/02 15:14:46;;;;;;;10.75;9.68;;;;;;;;;;2100967;28;20021;-58
2021/10/02 15:16:06;;;;;;;11.00;9.95;;;;;;;;;;2102053;28;20398;-58
2021/10/02 15:17:24;;;;;;;11.77;9.98;;;;;;;;;;2098683;28;20025;-58
2021/10/02 15:18:43;;;;;;;15.10;9.90;;;;;;;;;;2101077;28;20405;-58
2021/10/02 15:20:03;;;;;;;11.80;9.65;;;;;;;;;;2102874;28;20059;-58
2021/10/02 15:21:22;;;;;;;12.20;9.65;;;;;;;;;;2101841;28;20037;-58
2021/10/02 15:22:42;;;;;;;11.63;10.40;;;;;;;;;;2098490;28;20020;-58
2021/10/02 15:24:04;;;;;;;15.45;10.32;;;;;;;;;;2104168;28;20467;-58
2021/10/02 15:25:23;;;;;;;11.80;10.57;;;;;;;;;;2103780;28;20024;-57
2021/10/02 15:26:42;;;;;;;18.17;10.23;;;;;;;;;;2101957;28;20073;-58
2021/10/02 15:28:02;;;;;;;11.75;9.40;;;;;;;;;;2099581;28;20017;-58
2021/10/02 15:29:23;;;;;;;11.05;9.95;;;;;;;;;;2100857;28;20055;-58
2021/10/02 15:30:43;;;;;;;11.02;9.95;;;;;;;;;;2101192;28;20043;-57
2021/10/02 15:32:02;;;;;;;14.18;10.32;;;;;;;;;;2100295;28;20029;-58
2021/10/02 15:33:21;;;;;;;16.10;10.75;;;;;;;;;;2101893;28;20028;-58
2021/10/02 15:34:41;;;;;;;13.82;10.55;;;;;;;;;;2098892;28;20029;-58
2021/10/02 15:36:00;;;;;;;16.58;10.35;;;;;;;;;;2099596;28;20033;-58
2021/10/02 15:37:19;;;;;;;12.60;10.82;;;;;;;;;;2098785;28;20457;-58
2021/10/02 15:38:39;;;;;;;14.05;10.98;;;;;;;;;;2099515;28;20025;-58
2021/10/02 15:39:59;;;;;;;11.70;10.43;;;;;;;;;;2101783;28;20103;-58
2021/10/02 15:41:18;;;;;;;15.57;11.10;;;;;;;;;;2102549;28;20028;-58
2021/10/02 15:42:40;;;;;;;12.90;10.82;;;;;;;;;;2100463;28;20035;-59
2021/10/02 15:43:59;;;;;;;13.35;10.73;;;;;;;;;;2101681;28;20490;-58
2021/10/02 15:45:19;;;;;;;15.63;10.82;;;;;;;;;;2099288;28;20486;-58
2021/10/02 15:46:38;;;;;;;12.13;10.68;;;;;;;;;;2100478;28;20036;-59
2021/10/02 15:47:57;;;;;;;16.60;11.20;;;;;;;;;;2101370;28;20498;-57
2021/10/02 15:49:17;;;;;;;13.40;10.57;;;;;;;;;;2099971;28;20028;-59
2021/10/02 15:50:35;;;;;;;18.33;10.60;;;;;;;;;;2103992;28;20326;-58
2021/10/02 15:51:55;;;;;;;14.93;10.20;;;;;;;;;;2100352;28;20099;-57
2021/10/02 15:53:16;;;;;;;11.55;10.45;;;;;;;;;;2089946;28;20071;-58
2021/10/02 15:54:35;;;;;;;12.43;11.15;;;;;;;;;;2098030;28;20060;-58
2021/10/02 15:55:57;;;;;;;13.93;11.00;;;;;;;;;;2101615;28;20038;-58
2021/10/02 15:57:26;;;;;;;15.02;10.40;;;;;;;;;;2097821;28;20028;-59
2021/10/02 15:58:48;;;;;;;15.90;10.90;;;;;;;;;;2099537;28;20048;-59
2021/10/02 16:00:12;;;;;;;14.18;10.90;;;;;;;;;;2099067;28;20424;-56
2021/10/02 16:01:30;;;;;;;;;;;;;;;;;;2100857;28;20036;-58
2021/10/02 16:02:56;;;;;;;13.10;10.88;;;;;;;;;;2098621;28;20426;-61
2021/10/02 16:04:34;;;;;;;17.67;11.85;;;;;;;;;;2099496;28;20028;-58
2021/10/02 16:05:53;;;;;;;11.30;10.02;;;;;;;;;;2099482;28;20020;-58
2021/10/02 16:07:14;;;;;;;13.13;10.50;;;;;;;;;;2096936;28;20069;-59
2021/10/02 16:08:35;;;;;;;15.23;11.32;;;;;;;;;;2100675;28;20054;-57
2021/10/02 16:09:55;;;;;;;16.30;11.00;;;;;;;;;;2100890;28;20028;-57
2021/10/02 16:11:15;;;;;;;13.40;10.70;;;;;;;;;;2100906;28;20505;-57
2021/10/02 16:12:35;;;;;;;12.93;10.52;;;;;;;;;;2101780;28;20099;-57
2021/10/02 16:13:56;;;;;;;13.00;10.63;;;;;;;;;;2099646;28;20025;-58
2021/10/02 16:15:14;;;;;;;14.38;10.15;;;;;;;;;;2101777;28;20032;-57
2021/10/02 16:16:34;;;;;;;14.73;10.70;;;;;;;;;;2100939;28;20032;-57
2021/10/02 16:17:53;;;;;;;15.70;10.57;;;;;;;;;;2093312;28;20048;-59
2021/10/02 16:19:12;;;;;;;11.05;9.90;;;;;;;;;;2088484;28;20033;-57
2021/10/02 16:20:32;;;;;;;11.65;10.43;;;;;;;;;;2095623;28;20041;-58
2021/10/02 16:21:51;;;;;;;14.68;11.15;;;;;;;;;;2102008;28;20032;-58
2021/10/02 16:23:11;;;;;;;13.98;10.65;;;;;;;;;;2092092;28;20025;-59
2021/10/02 16:24:30;;;;;;;12.13;10.35;;;;;;;;;;2097476;28;20025;-57
2021/10/02 16:25:49;;;;;;;12.32;10.15;;;;;;;;;;2098398;28;20421;-58
2021/10/02 16:27:08;;;;;;;14.82;10.05;;;;;;;;;;2101617;28;20486;-57
2021/10/02 16:28:27;;;;;;;15.57;10.18;;;;;;;;;;2103243;28;20028;-58
2021/10/02 16:29:46;;;;;;;13.13;10.20;;;;;;;;;;2100008;28;20020;-58
2021/10/02 16:31:05;;;;;;;13.15;10.00;;;;;;;;;;2100752;28;20088;-58
2021/10/02 16:32:24;;;;;;;15.73;9.85;;;;;;;;;;2101584;28;20024;-59
2021/10/02 16:33:43;;;;;;;13.05;10.32;;;;;;;;;;2099306;28;20024;-59
2021/10/02 16:35:04;;;;;;;12.98;9.82;;;;;;;;;;2100610;28;20028;-58
2021/10/02 16:36:28;;;;;;;13.43;10.07;;;;;;;;;;2098478;28;20078;-58
2021/10/02 16:37:47;;;;;;;14.88;9.65;;;;;;;;;;2101726;28;20021;-59
2021/10/02 16:39:07;;;;;;;15.30;10.23;;;;;;;;;;2101597;28;20037;-58
2021/10/02 16:40:26;;;;;;;12.45;9.30;;;;;;;;;;2101502;28;20025;-59
2021/10/02 16:41:45;;;;;;;10.82;9.43;;;;;;;;;;2100719;28;20059;-58
2021/10/02 16:43:04;;;;;;;14.90;9.82;;;;;;;;;;2098892;28;20024;-58
2021/10/02 16:44:23;;;;;;;13.07;9.75;;;;;;;;;;2099342;28;20032;-59
2021/10/02 16:45:42;;;;;;;10.98;9.20;;;;;;;;;;2098346;28;20025;-59
2021/10/02 16:47:01;;;;;;;10.65;9.05;;;;;;;;;;2101436;28;20118;-60
2021/10/02 16:48:20;;;;;;;13.25;9.30;;;;;;;;;;2101544;28;20028;-58
2021/10/02 16:49:40;;;;;;;10.52;9.45;;;;;;;;;;2100787;28;20056;-59
2021/10/02 16:51:00;;;;;;;13.13;8.70;;;;;;;;;;2099600;28;20032;-59
2021/10/02 16:52:20;;;;;;;11.65;8.82;;;;;;;;;;2100447;28;20025;-58
2021/10/02 16:53:39;;;;;;;13.38;9.70;;;;;;;;;;2103071;28;20069;-58
2021/10/02 16:54:59;;;;;;;9.88;8.82;;;;;;;;;;2101141;28;20498;-59
2021/10/02 16:56:18;;;;;;;12.55;8.95;;;;;;;;;;2099612;28;20032;-58
2021/10/02 16:57:37;;;;;;;10.73;9.43;;;;;;;;;;2101144;28;20048;-58
2021/10/02 16:58:55;;;;;;;11.40;9.25;;;;;;;;;;2100506;28;20028;-59
2021/10/02 17:00:17;;;;;;;12.68;8.93;;;;;;;;;;2101148;28;20473;-57
2021/10/02 17:01:38;;;;;;;10.05;8.88;;;;;;;;;;2100416;28;20036;-56
2021/10/02 17:02:57;;;;;;;9.98;8.45;;;;;;;;;;2099420;28;20074;-58
2021/10/02 17:04:16;;;;;;;10.73;8.70;;;;;;;;;;2102107;28;20531;-57
2021/10/02 17:05:35;;;;;;;15.70;9.38;;;;;;;;;;2100910;28;20040;-56
2021/10/02 17:06:54;;;;;;;11.70;8.80;;;;;;;;;;2101011;28;20028;-60